createdAt,value
2023-09-25T00:00:29.283Z,22.75
2023-09-25T00:00:59.711Z,22.76
2023-09-25T00:01:30.129Z,22.78
2023-09-25T00:02:00.533Z,22.77
2023-09-25T00:02:30.960Z,22.76
2023-09-25T00:03:01.765Z,22.78
2023-09-25T00:03:32.527Z,22.80
2023-09-25T00:04:03.072Z,22.79
2023-09-25T00:04:33.615Z,22.80
2023-09-25T00:05:04.056Z,22.79
2023-09-25T00:05:34.643Z,22.79
2023-09-25T00:06:05.115Z,22.79
2023-09-25T00:06:35.546Z,22.80
2023-09-25T00:07:05.935Z,22.79
2023-09-25T00:07:36.359Z,22.81
2023-09-25T00:08:06.776Z,22.81
2023-09-25T00:08:37.212Z,22.82
2023-09-25T00:09:07.683Z,22.81
2023-09-25T00:09:38.121Z,22.81
2023-09-25T00:10:08.507Z,22.80
2023-09-25T00:10:38.924Z,22.82
2023-09-25T00:11:09.339Z,22.82
2023-09-25T00:11:39.768Z,22.80
2023-09-25T00:12:10.207Z,22.78
2023-09-25T00:12:40.634Z,22.78
2023-09-25T00:13:11.033Z,22.78
2023-09-25T00:13:41.490Z,22.79
2023-09-25T00:14:11.892Z,22.78
2023-09-25T00:14:42.543Z,22.79
2023-09-25T00:15:13.022Z,22.81
2023-09-25T00:15:43.541Z,22.80
2023-09-25T00:16:14.038Z,22.80
2023-09-25T00:16:44.454Z,22.79
2023-09-25T00:17:14.931Z,22.80
2023-09-25T00:17:45.369Z,22.78
2023-09-25T00:18:15.911Z,22.74
2023-09-25T00:18:46.432Z,22.72
2023-09-25T00:19:16.960Z,22.72
2023-09-25T00:19:47.395Z,22.69
2023-09-25T00:20:17.826Z,22.73
2023-09-25T00:20:48.239Z,22.73
2023-09-25T00:21:18.752Z,22.73
2023-09-25T00:21:49.118Z,22.76
2023-09-25T00:22:19.535Z,22.76
2023-09-25T00:22:49.974Z,22.77
2023-09-25T00:23:20.408Z,22.75
2023-09-25T00:23:50.827Z,22.73
2023-09-25T00:24:21.316Z,22.73
2023-09-25T00:24:51.695Z,22.72
2023-09-25T00:25:22.131Z,22.72
2023-09-25T00:25:52.557Z,22.72
2023-09-25T00:26:22.977Z,22.73
2023-09-25T00:26:53.406Z,22.74
2023-09-25T00:27:23.899Z,22.72
2023-09-25T00:27:54.478Z,22.71
2023-09-25T00:28:24.869Z,22.72
2023-09-25T00:28:55.284Z,22.74
2023-09-25T00:29:25.711Z,22.73
2023-09-25T00:29:56.138Z,22.72
2023-09-25T00:30:26.671Z,22.71
2023-09-25T00:30:57.048Z,22.70
2023-09-25T00:31:27.472Z,22.71
2023-09-25T00:31:57.893Z,22.73
2023-09-25T00:32:28.333Z,22.74
2023-09-25T00:32:58.939Z,22.73
2023-09-25T00:33:29.397Z,22.73
2023-09-25T00:33:59.982Z,22.73
2023-09-25T00:34:30.568Z,22.73
2023-09-25T00:35:01.004Z,22.72
2023-09-25T00:35:31.422Z,22.74
2023-09-25T00:36:01.955Z,22.72
2023-09-25T00:36:32.398Z,22.74
2023-09-25T00:37:02.787Z,22.75
2023-09-25T00:37:33.217Z,22.74
2023-09-25T00:38:03.649Z,22.73
2023-09-25T00:38:34.055Z,22.74
2023-09-25T00:39:04.523Z,22.74
2023-09-25T00:39:34.924Z,22.75
2023-09-25T00:40:05.330Z,22.74
2023-09-25T00:40:35.757Z,22.71
2023-09-25T00:41:06.182Z,22.69
2023-09-25T00:41:36.607Z,22.69
2023-09-25T00:42:07.096Z,22.70
2023-09-25T00:42:37.564Z,22.72
2023-09-25T00:43:08.023Z,22.71
2023-09-25T00:43:38.436Z,22.74
2023-09-25T00:44:08.848Z,22.73
2023-09-25T00:44:39.266Z,22.73
2023-09-25T00:45:09.707Z,22.72
2023-09-25T00:45:40.175Z,22.73
2023-09-25T00:46:10.617Z,22.73
2023-09-25T00:46:41.022Z,22.72
2023-09-25T00:47:11.456Z,22.73
2023-09-25T00:47:41.900Z,22.73
2023-09-25T00:48:12.430Z,22.73
2023-09-25T00:48:42.925Z,22.71
2023-09-25T00:49:13.365Z,22.71
2023-09-25T00:49:43.795Z,22.73
2023-09-25T00:50:14.198Z,22.72
2023-09-25T00:50:44.625Z,22.72
2023-09-25T00:51:15.072Z,22.71
2023-09-25T00:51:45.566Z,22.69
2023-09-25T00:52:15.976Z,22.68
2023-09-25T00:52:46.388Z,22.70
2023-09-25T00:53:16.806Z,22.69
2023-09-25T00:53:47.373Z,22.70
2023-09-25T00:54:25.513Z,22.68
2023-09-25T00:54:53.152Z,22.66
2023-09-25T00:55:23.539Z,22.64
2023-09-25T00:55:53.978Z,22.65
2023-09-25T00:56:24.396Z,22.66
2023-09-25T00:56:54.819Z,22.66
2023-09-25T00:57:25.275Z,22.67
2023-09-25T00:57:55.689Z,22.71
2023-09-25T00:58:26.135Z,22.75
2023-09-25T00:58:56.545Z,22.73
2023-09-25T00:59:26.967Z,22.72
2023-09-25T00:59:57.389Z,22.71
2023-09-25T01:00:27.858Z,22.68
2023-09-25T01:00:58.355Z,22.69
2023-09-25T01:01:28.893Z,22.66
2023-09-25T01:01:59.306Z,22.68
2023-09-25T01:02:29.736Z,22.69
2023-09-25T01:03:00.212Z,22.70
2023-09-25T01:03:30.616Z,22.69
2023-09-25T01:04:01.156Z,22.67
2023-09-25T01:04:31.629Z,22.70
2023-09-25T01:05:02.112Z,22.70
2023-09-25T01:05:32.502Z,22.68
2023-09-25T01:06:02.985Z,22.66
2023-09-25T01:06:33.421Z,22.66
2023-09-25T01:07:03.807Z,22.67
2023-09-25T01:07:34.227Z,22.69
2023-09-25T01:08:04.653Z,22.70
2023-09-25T01:08:35.095Z,22.70
2023-09-25T01:09:05.530Z,22.71
2023-09-25T01:09:35.969Z,22.72
2023-09-25T01:10:06.670Z,22.70
2023-09-25T01:10:37.235Z,22.70
2023-09-25T01:11:07.665Z,22.68
2023-09-25T01:11:38.091Z,22.66
2023-09-25T01:12:08.555Z,22.63
2023-09-25T01:12:39.045Z,22.61
2023-09-25T01:13:09.568Z,22.61
2023-09-25T01:13:39.995Z,22.62
2023-09-25T01:14:10.411Z,22.67
2023-09-25T01:14:40.840Z,22.67
2023-09-25T01:15:11.296Z,22.69
2023-09-25T01:15:41.738Z,22.69
2023-09-25T01:16:12.254Z,22.70
2023-09-25T01:16:42.709Z,22.69
2023-09-25T01:17:13.151Z,22.70
2023-09-25T01:17:43.582Z,22.67
2023-09-25T01:18:14.027Z,22.68
2023-09-25T01:18:44.476Z,22.64
2023-09-25T01:19:14.926Z,22.64
2023-09-25T01:19:45.316Z,22.65
2023-09-25T01:20:15.728Z,22.66
2023-09-25T01:20:46.168Z,22.64
2023-09-25T01:21:16.613Z,22.67
2023-09-25T01:21:47.020Z,22.67
2023-09-25T01:22:17.446Z,22.69
2023-09-25T01:22:47.974Z,22.67
2023-09-25T01:23:18.389Z,22.67
2023-09-25T01:23:48.813Z,22.64
2023-09-25T01:24:19.348Z,22.64
2023-09-25T01:24:49.739Z,22.64
2023-09-25T01:25:20.202Z,22.64
2023-09-25T01:25:50.604Z,22.63
2023-09-25T01:26:21.024Z,22.63
2023-09-25T01:26:51.443Z,22.60
2023-09-25T01:27:21.922Z,22.63
2023-09-25T01:27:52.333Z,22.65
2023-09-25T01:28:22.760Z,22.64
2023-09-25T01:28:53.169Z,22.62
2023-09-25T01:29:23.594Z,22.64
2023-09-25T01:29:54.010Z,22.64
2023-09-25T01:30:24.490Z,22.66
2023-09-25T01:30:54.878Z,22.67
2023-09-25T01:31:25.307Z,22.67
2023-09-25T01:31:55.736Z,22.66
2023-09-25T01:32:26.200Z,22.63
2023-09-25T01:32:56.715Z,22.63
2023-09-25T01:33:27.232Z,22.63
2023-09-25T01:33:57.717Z,22.62
2023-09-25T01:34:28.283Z,22.63
2023-09-25T01:34:58.656Z,22.64
2023-09-25T01:35:29.092Z,22.63
2023-09-25T01:35:59.507Z,22.64
2023-09-25T01:36:29.979Z,22.67
2023-09-25T01:37:00.357Z,22.68
2023-09-25T01:37:30.771Z,22.67
2023-09-25T01:38:01.220Z,22.68
2023-09-25T01:38:31.625Z,22.70
2023-09-25T01:39:02.049Z,22.68
2023-09-25T01:39:32.495Z,22.67
2023-09-25T01:40:02.900Z,22.67
2023-09-25T01:40:33.336Z,22.66
2023-09-25T01:41:03.750Z,22.66
2023-09-25T01:41:34.183Z,22.66
2023-09-25T01:42:04.663Z,22.66
2023-09-25T01:42:35.093Z,22.63
2023-09-25T01:43:05.471Z,22.61
2023-09-25T01:43:35.891Z,22.61
2023-09-25T01:44:06.326Z,22.62
2023-09-25T01:44:36.913Z,22.64
2023-09-25T01:45:07.399Z,22.65
2023-09-25T01:45:37.854Z,22.67
2023-09-25T01:46:08.295Z,22.66
2023-09-25T01:46:38.744Z,22.65
2023-09-25T01:47:09.136Z,22.63
2023-09-25T01:47:39.623Z,22.62
2023-09-25T01:48:10.051Z,22.60
2023-09-25T01:48:40.632Z,22.58
2023-09-25T01:49:11.103Z,22.61
2023-09-25T01:49:41.638Z,22.63
2023-09-25T01:50:12.061Z,22.64
2023-09-25T01:50:42.475Z,22.66
2023-09-25T01:51:12.923Z,22.67
2023-09-25T01:51:43.396Z,22.65
2023-09-25T01:52:13.800Z,22.69
2023-09-25T01:52:44.214Z,22.68
2023-09-25T01:53:14.634Z,22.67
2023-09-25T01:53:45.059Z,22.65
2023-09-25T01:54:15.510Z,22.66
2023-09-25T01:54:45.964Z,22.66
2023-09-25T01:55:16.377Z,22.63
2023-09-25T01:55:46.796Z,22.60
2023-09-25T01:56:17.224Z,22.60
2023-09-25T01:56:47.641Z,22.58
2023-09-25T01:57:18.078Z,22.61
2023-09-25T01:57:48.496Z,22.61
2023-09-25T01:58:18.914Z,22.63
2023-09-25T01:58:49.586Z,22.63
2023-09-25T01:59:20.117Z,22.59
2023-09-25T01:59:50.541Z,22.60
2023-09-25T02:00:21.010Z,22.62
2023-09-25T02:00:51.491Z,22.61
2023-09-25T02:01:21.899Z,22.60
2023-09-25T02:01:52.316Z,22.60
2023-09-25T02:02:22.727Z,22.59
2023-09-25T02:02:53.301Z,22.59
2023-09-25T02:03:23.888Z,22.58
2023-09-25T02:03:54.654Z,22.57
2023-09-25T02:04:25.549Z,22.55
2023-09-25T02:04:56.604Z,22.54
2023-09-25T02:05:27.318Z,22.52
2023-09-25T02:05:57.801Z,22.54
2023-09-25T02:06:28.316Z,22.56
2023-09-25T02:06:58.721Z,22.56
2023-09-25T02:07:29.157Z,22.57
2023-09-25T02:07:59.565Z,22.58
2023-09-25T02:08:29.992Z,22.57
2023-09-25T02:09:00.424Z,22.57
2023-09-25T02:09:30.936Z,22.56
2023-09-25T02:10:01.326Z,22.58
2023-09-25T02:10:31.732Z,22.57
2023-09-25T02:11:02.157Z,22.56
2023-09-25T02:11:32.572Z,22.59
2023-09-25T02:12:03.005Z,22.58
2023-09-25T02:12:33.484Z,22.59
2023-09-25T02:13:03.864Z,22.60
2023-09-25T02:13:34.313Z,22.60
2023-09-25T02:14:04.733Z,22.60
2023-09-25T02:14:35.159Z,22.60
2023-09-25T02:15:05.645Z,22.61
2023-09-25T02:15:36.128Z,22.61
2023-09-25T02:16:06.551Z,22.60
2023-09-25T02:16:36.987Z,22.64
2023-09-25T02:17:07.380Z,22.63
2023-09-25T02:17:37.857Z,22.64
2023-09-25T02:18:08.376Z,22.62
2023-09-25T02:18:38.868Z,22.61
2023-09-25T02:19:09.277Z,22.60
2023-09-25T02:19:39.703Z,22.59
2023-09-25T02:20:10.143Z,22.57
2023-09-25T02:20:40.553Z,22.60
2023-09-25T02:21:11.104Z,22.57
2023-09-25T02:21:41.480Z,22.56
2023-09-25T02:22:11.905Z,22.56
2023-09-25T02:22:42.337Z,22.54
2023-09-25T02:23:12.773Z,22.53
2023-09-25T02:23:43.210Z,22.52
2023-09-25T02:24:13.630Z,22.51
2023-09-25T02:24:44.059Z,22.51
2023-09-25T02:25:14.463Z,22.50
2023-09-25T02:25:44.894Z,22.49
2023-09-25T02:26:15.307Z,22.51
2023-09-25T02:26:45.739Z,22.52
2023-09-25T02:27:16.181Z,22.53
2023-09-25T02:27:46.831Z,22.52
2023-09-25T02:28:17.434Z,22.50
2023-09-25T02:28:48.133Z,22.51
2023-09-25T02:29:18.687Z,22.54
2023-09-25T02:29:49.132Z,22.54
2023-09-25T02:30:19.564Z,22.54
2023-09-25T02:30:50.011Z,22.51
2023-09-25T02:31:20.456Z,22.50
2023-09-25T02:31:50.911Z,22.52
2023-09-25T02:32:21.345Z,22.52
2023-09-25T02:32:51.757Z,22.52
2023-09-25T02:33:22.236Z,22.52
2023-09-25T02:33:52.618Z,22.52
2023-09-25T02:34:23.038Z,22.50
2023-09-25T02:34:53.465Z,22.50
2023-09-25T02:35:23.914Z,22.47
2023-09-25T02:35:54.319Z,22.47
2023-09-25T02:36:24.764Z,22.46
2023-09-25T02:36:55.166Z,22.48
2023-09-25T02:37:25.603Z,22.50
2023-09-25T02:37:56.046Z,22.51
2023-09-25T02:38:26.466Z,22.51
2023-09-25T02:38:56.886Z,22.52
2023-09-25T02:39:27.344Z,22.52
2023-09-25T02:39:57.736Z,22.51
2023-09-25T02:40:28.165Z,22.51
2023-09-25T02:40:58.582Z,22.51
2023-09-25T02:41:29.007Z,22.50
2023-09-25T02:41:59.438Z,22.50
2023-09-25T02:42:29.926Z,22.51
2023-09-25T02:43:00.323Z,22.52
2023-09-25T02:43:30.772Z,22.54
2023-09-25T02:44:01.168Z,22.53
2023-09-25T02:44:31.586Z,22.53
2023-09-25T02:45:02.037Z,22.54
2023-09-25T02:45:32.506Z,22.55
2023-09-25T02:46:03.060Z,22.57
2023-09-25T02:46:33.593Z,22.57
2023-09-25T02:47:03.999Z,22.56
2023-09-25T02:47:34.438Z,22.54
2023-09-25T02:48:04.921Z,22.50
2023-09-25T02:48:35.343Z,22.47
2023-09-25T02:49:05.885Z,22.49
2023-09-25T02:49:36.295Z,22.51
2023-09-25T02:50:06.745Z,22.53
2023-09-25T02:50:37.215Z,22.51
2023-09-25T02:51:07.664Z,22.50
2023-09-25T02:51:38.138Z,22.48
2023-09-25T02:52:08.539Z,22.48
2023-09-25T02:52:38.979Z,22.50
2023-09-25T02:53:09.390Z,22.52
2023-09-25T02:53:39.806Z,22.54
2023-09-25T02:54:10.256Z,22.53
2023-09-25T02:54:40.733Z,22.53
2023-09-25T02:55:11.116Z,22.54
2023-09-25T02:55:41.546Z,22.51
2023-09-25T02:56:11.966Z,22.53
2023-09-25T02:56:42.397Z,22.52
2023-09-25T02:57:12.850Z,22.52
2023-09-25T02:57:43.290Z,22.51
2023-09-25T02:58:13.693Z,22.52
2023-09-25T02:58:44.116Z,22.53
2023-09-25T02:59:14.545Z,22.53
2023-09-25T02:59:44.957Z,22.52
2023-09-25T03:00:15.419Z,22.53
2023-09-25T03:00:45.880Z,22.47
2023-09-25T03:01:16.282Z,22.46
2023-09-25T03:01:46.733Z,22.44
2023-09-25T03:02:17.244Z,22.47
2023-09-25T03:02:47.715Z,22.47
2023-09-25T03:03:18.232Z,22.48
2023-09-25T03:03:48.745Z,22.49
2023-09-25T03:04:19.165Z,22.46
2023-09-25T03:04:49.596Z,22.46
2023-09-25T03:05:19.997Z,22.44
2023-09-25T03:05:50.535Z,22.44
2023-09-25T03:06:21.013Z,22.44
2023-09-25T03:06:51.459Z,22.47
2023-09-25T03:07:21.883Z,22.48
2023-09-25T03:07:52.317Z,22.49
2023-09-25T03:08:22.743Z,22.50
2023-09-25T03:08:53.177Z,22.50
2023-09-25T03:09:23.674Z,22.50
2023-09-25T03:09:54.059Z,22.52
2023-09-25T03:10:24.493Z,22.53
2023-09-25T03:10:54.905Z,22.54
2023-09-25T03:11:25.362Z,22.54
2023-09-25T03:11:55.773Z,22.52
2023-09-25T03:12:26.212Z,22.51
2023-09-25T03:12:56.650Z,22.53
2023-09-25T03:13:27.040Z,22.51
2023-09-25T03:13:57.460Z,22.52
2023-09-25T03:14:27.882Z,22.50
2023-09-25T03:14:58.306Z,22.46
2023-09-25T03:15:28.762Z,22.46
2023-09-25T03:15:59.243Z,22.46
2023-09-25T03:16:29.737Z,22.49
2023-09-25T03:17:00.138Z,22.47
2023-09-25T03:17:30.652Z,22.49
2023-09-25T03:18:01.085Z,22.48
2023-09-25T03:18:31.511Z,22.47
2023-09-25T03:19:01.974Z,22.45
2023-09-25T03:19:32.385Z,22.46
2023-09-25T03:20:02.806Z,22.44
2023-09-25T03:20:33.226Z,22.42
2023-09-25T03:21:03.679Z,22.44
2023-09-25T03:21:34.115Z,22.43
2023-09-25T03:22:04.509Z,22.46
2023-09-25T03:22:34.940Z,22.47
2023-09-25T03:23:05.399Z,22.46
2023-09-25T03:23:35.832Z,22.46
2023-09-25T03:24:06.248Z,22.45
2023-09-25T03:24:36.711Z,22.44
2023-09-25T03:25:07.128Z,22.44
2023-09-25T03:25:37.568Z,22.47
2023-09-25T03:26:07.991Z,22.48
2023-09-25T03:26:38.415Z,22.49
2023-09-25T03:27:08.865Z,22.48
2023-09-25T03:27:39.307Z,22.46
2023-09-25T03:28:09.883Z,22.46
2023-09-25T03:28:40.301Z,22.46
2023-09-25T03:29:10.733Z,22.46
2023-09-25T03:29:41.160Z,22.47
2023-09-25T03:30:11.614Z,22.47
2023-09-25T03:30:42.059Z,22.46
2023-09-25T03:31:12.503Z,22.46
2023-09-25T03:31:42.948Z,22.46
2023-09-25T03:32:13.338Z,22.43
2023-09-25T03:32:43.784Z,22.42
2023-09-25T03:33:14.215Z,22.44
2023-09-25T03:33:44.670Z,22.47
2023-09-25T03:34:15.054Z,22.45
2023-09-25T03:34:45.486Z,22.43
2023-09-25T03:35:15.902Z,22.43
2023-09-25T03:35:46.337Z,22.44
2023-09-25T03:36:16.808Z,22.45
2023-09-25T03:36:47.307Z,22.43
2023-09-25T03:37:19.125Z,22.43
2023-09-25T03:37:50.174Z,22.40
2023-09-25T03:38:20.614Z,22.41
2023-09-25T03:38:51.037Z,22.40
2023-09-25T03:39:21.489Z,22.40
2023-09-25T03:39:51.895Z,22.39
2023-09-25T03:40:22.339Z,22.42
2023-09-25T03:40:52.755Z,22.42
2023-09-25T03:41:23.168Z,22.42
2023-09-25T03:41:53.603Z,22.44
2023-09-25T03:42:24.120Z,22.43
2023-09-25T03:42:54.537Z,22.45
2023-09-25T03:43:24.958Z,22.45
2023-09-25T03:43:55.393Z,22.47
2023-09-25T03:44:25.812Z,22.46
2023-09-25T03:44:56.259Z,22.43
2023-09-25T03:45:26.738Z,22.42
2023-09-25T03:45:57.183Z,22.41
2023-09-25T03:46:27.612Z,22.40
2023-09-25T03:46:58.044Z,22.39
2023-09-25T03:47:28.490Z,22.38
2023-09-25T03:47:58.914Z,22.37
2023-09-25T03:48:29.390Z,22.38
2023-09-25T03:48:59.873Z,22.39
2023-09-25T03:49:30.287Z,22.37
2023-09-25T03:50:00.724Z,22.39
2023-09-25T03:50:31.140Z,22.39
2023-09-25T03:51:01.562Z,22.40
2023-09-25T03:51:32.060Z,22.38
2023-09-25T03:52:02.451Z,22.39
2023-09-25T03:52:32.884Z,22.40
2023-09-25T03:53:03.305Z,22.40
2023-09-25T03:53:33.724Z,22.41
2023-09-25T03:54:04.160Z,22.41
2023-09-25T03:54:34.615Z,22.40
2023-09-25T03:55:05.061Z,22.40
2023-09-25T03:55:35.478Z,22.41
2023-09-25T03:56:05.902Z,22.43
2023-09-25T03:56:36.326Z,22.45
2023-09-25T03:57:06.761Z,22.44
2023-09-25T03:57:37.183Z,22.43
2023-09-25T03:58:07.597Z,22.41
2023-09-25T03:58:38.018Z,22.43
2023-09-25T03:59:08.458Z,22.42
2023-09-25T03:59:38.883Z,22.42
2023-09-25T04:00:09.358Z,22.40
2023-09-25T04:00:39.884Z,22.39
2023-09-25T04:01:10.296Z,22.38
2023-09-25T04:01:40.830Z,22.39
2023-09-25T04:02:11.277Z,22.39
2023-09-25T04:02:41.749Z,22.39
2023-09-25T04:03:12.236Z,22.42
2023-09-25T04:03:42.733Z,22.43
2023-09-25T04:04:13.323Z,22.41
2023-09-25T04:04:43.934Z,22.40
2023-09-25T04:05:14.347Z,22.39
2023-09-25T04:05:44.770Z,22.39
2023-09-25T04:06:15.208Z,22.37
2023-09-25T04:06:45.650Z,22.36
2023-09-25T04:07:16.040Z,22.38
2023-09-25T04:07:46.460Z,22.39
2023-09-25T04:08:16.883Z,22.41
2023-09-25T04:08:47.385Z,22.38
2023-09-25T04:09:17.824Z,22.34
2023-09-25T04:09:48.267Z,22.33
2023-09-25T04:10:18.662Z,22.35
2023-09-25T04:10:49.090Z,22.36
2023-09-25T04:11:19.530Z,22.35
2023-09-25T04:11:49.950Z,22.34
2023-09-25T04:12:20.478Z,22.34
2023-09-25T04:12:50.909Z,22.30
2023-09-25T04:13:21.300Z,22.32
2023-09-25T04:13:51.732Z,22.30
2023-09-25T04:14:22.164Z,22.31
2023-09-25T04:14:52.586Z,22.31
2023-09-25T04:15:23.064Z,22.34
2023-09-25T04:15:53.548Z,22.34
2023-09-25T04:16:24.024Z,22.32
2023-09-25T04:16:54.435Z,22.33
2023-09-25T04:17:24.827Z,22.35
2023-09-25T04:17:55.269Z,22.38
2023-09-25T04:18:25.777Z,22.39
2023-09-25T04:18:56.283Z,22.39
2023-09-25T04:19:26.772Z,22.40
2023-09-25T04:19:57.337Z,22.38
2023-09-25T04:20:27.771Z,22.38
2023-09-25T04:20:58.191Z,22.38
2023-09-25T04:21:28.629Z,22.39
2023-09-25T04:21:59.057Z,22.38
2023-09-25T04:22:29.452Z,22.39
2023-09-25T04:22:59.875Z,22.38
2023-09-25T04:23:30.310Z,22.40
2023-09-25T04:24:00.729Z,22.40
2023-09-25T04:24:31.154Z,22.35
2023-09-25T04:25:01.595Z,22.36
2023-09-25T04:25:31.996Z,22.37
2023-09-25T04:26:02.580Z,22.40
2023-09-25T04:26:32.973Z,22.41
2023-09-25T04:27:03.388Z,22.40
2023-09-25T04:27:33.876Z,22.38
2023-09-25T04:28:04.256Z,22.39
2023-09-25T04:28:34.704Z,22.39
2023-09-25T04:29:05.135Z,22.38
2023-09-25T04:29:35.550Z,22.39
2023-09-25T04:30:05.989Z,22.37
2023-09-25T04:30:36.458Z,22.37
2023-09-25T04:31:06.900Z,22.36
2023-09-25T04:31:37.338Z,22.35
2023-09-25T04:32:07.735Z,22.36
2023-09-25T04:32:38.265Z,22.38
2023-09-25T04:33:08.829Z,22.40
2023-09-25T04:33:39.307Z,22.40
2023-09-25T04:34:09.742Z,22.36
2023-09-25T04:34:40.161Z,22.33
2023-09-25T04:35:10.581Z,22.33
2023-09-25T04:35:41.004Z,22.31
2023-09-25T04:36:11.616Z,22.28
2023-09-25T04:36:42.372Z,22.28
2023-09-25T04:37:12.799Z,22.27
2023-09-25T04:37:43.218Z,22.27
2023-09-25T04:38:13.661Z,22.28
2023-09-25T04:38:44.082Z,22.26
2023-09-25T04:39:14.523Z,22.28
2023-09-25T04:39:44.942Z,22.30
2023-09-25T04:40:15.359Z,22.33
2023-09-25T04:40:45.781Z,22.32
2023-09-25T04:41:16.213Z,22.32
2023-09-25T04:41:46.651Z,22.35
2023-09-25T04:42:17.070Z,22.37
2023-09-25T04:42:47.573Z,22.38
2023-09-25T04:43:17.976Z,22.39
2023-09-25T04:43:48.420Z,22.36
2023-09-25T04:44:19.748Z,22.38
2023-09-25T04:44:50.149Z,22.38
2023-09-25T04:45:20.643Z,22.37
2023-09-25T04:45:51.172Z,22.35
2023-09-25T04:46:21.657Z,22.35
2023-09-25T04:46:52.146Z,22.35
2023-09-25T04:47:22.583Z,22.35
2023-09-25T04:47:53.361Z,22.33
2023-09-25T04:48:23.909Z,22.31
2023-09-25T04:48:54.344Z,22.30
2023-09-25T04:49:24.775Z,22.30
2023-09-25T04:49:55.196Z,22.32
2023-09-25T04:50:25.630Z,22.31
2023-09-25T04:50:56.051Z,22.29
2023-09-25T04:51:26.521Z,22.34
2023-09-25T04:51:56.973Z,22.36
2023-09-25T04:52:27.419Z,22.36
2023-09-25T04:52:57.813Z,22.34
2023-09-25T04:53:28.237Z,22.32
2023-09-25T04:53:58.654Z,22.33
2023-09-25T04:54:29.161Z,22.30
2023-09-25T04:54:59.546Z,22.28
2023-09-25T04:55:29.967Z,22.29
2023-09-25T04:56:00.386Z,22.29
2023-09-25T04:56:30.810Z,22.30
2023-09-25T04:57:01.273Z,22.30
2023-09-25T04:57:31.737Z,22.28
2023-09-25T04:58:02.272Z,22.29
2023-09-25T04:58:32.879Z,22.27
2023-09-25T04:59:03.349Z,22.27
2023-09-25T04:59:33.760Z,22.29
2023-09-25T05:00:04.201Z,22.30
2023-09-25T05:00:34.636Z,22.32
2023-09-25T05:01:05.119Z,22.33
2023-09-25T05:01:35.558Z,22.35
2023-09-25T05:02:06.010Z,22.33
2023-09-25T05:02:36.475Z,22.33
2023-09-25T05:03:06.966Z,22.34
2023-09-25T05:03:39.052Z,22.31
2023-09-25T05:04:11.091Z,22.34
2023-09-25T05:04:41.509Z,22.30
2023-09-25T05:05:11.931Z,22.29
2023-09-25T05:05:42.351Z,22.29
2023-09-25T05:06:12.917Z,22.29
2023-09-25T05:06:43.453Z,22.31
2023-09-25T05:07:13.958Z,22.32
2023-09-25T05:07:44.391Z,22.33
2023-09-25T05:08:14.802Z,22.31
2023-09-25T05:08:45.222Z,22.32
2023-09-25T05:09:15.681Z,22.33
2023-09-25T05:09:46.122Z,22.32
2023-09-25T05:10:16.521Z,22.31
2023-09-25T05:10:46.945Z,22.31
2023-09-25T05:11:17.397Z,22.30
2023-09-25T05:11:47.799Z,22.28
2023-09-25T05:12:18.260Z,22.30
2023-09-25T05:12:48.709Z,22.29
2023-09-25T05:13:19.165Z,22.29
2023-09-25T05:13:49.608Z,22.28
2023-09-25T05:14:20.032Z,22.26
2023-09-25T05:14:50.448Z,22.26
2023-09-25T05:15:20.915Z,22.27
2023-09-25T05:15:51.355Z,22.27
2023-09-25T05:16:21.964Z,22.28
2023-09-25T05:16:52.555Z,22.27
2023-09-25T05:17:22.943Z,22.25
2023-09-25T05:17:53.409Z,22.23
2023-09-25T05:18:23.881Z,22.25
2023-09-25T05:18:54.342Z,22.26
2023-09-25T05:19:24.738Z,22.27
2023-09-25T05:19:55.169Z,22.26
2023-09-25T05:20:25.625Z,22.26
2023-09-25T05:20:56.047Z,22.25
2023-09-25T05:21:26.537Z,22.26
2023-09-25T05:21:56.975Z,22.28
2023-09-25T05:22:27.373Z,22.30
2023-09-25T05:22:57.822Z,22.27
2023-09-25T05:23:28.218Z,22.26
2023-09-25T05:23:58.640Z,22.26
2023-09-25T05:24:29.169Z,22.26
2023-09-25T05:24:59.559Z,22.27
2023-09-25T05:25:29.991Z,22.26
2023-09-25T05:26:00.427Z,22.28
2023-09-25T05:26:30.857Z,22.27
2023-09-25T05:27:01.278Z,22.26
2023-09-25T05:27:31.730Z,22.25
2023-09-25T05:28:02.125Z,22.23
2023-09-25T05:28:32.554Z,22.22
2023-09-25T05:29:02.979Z,22.26
2023-09-25T05:29:33.390Z,22.28
2023-09-25T05:30:03.812Z,22.26
2023-09-25T05:30:34.279Z,22.25
2023-09-25T05:31:04.804Z,22.28
2023-09-25T05:31:35.267Z,22.29
2023-09-25T05:32:05.664Z,22.28
2023-09-25T05:32:36.123Z,22.28
2023-09-25T05:33:06.557Z,22.30
2023-09-25T05:33:36.974Z,22.32
2023-09-25T05:34:07.366Z,22.30
2023-09-25T05:34:37.793Z,22.25
2023-09-25T05:35:08.208Z,22.22
2023-09-25T05:35:38.643Z,22.22
2023-09-25T05:36:09.079Z,22.21
2023-09-25T05:36:39.565Z,22.20
2023-09-25T05:37:09.959Z,22.19
2023-09-25T05:37:40.383Z,22.18
2023-09-25T05:38:10.850Z,22.19
2023-09-25T05:38:41.246Z,22.20
2023-09-25T05:39:11.701Z,22.22
2023-09-25T05:39:42.113Z,22.25
2023-09-25T05:40:12.527Z,22.24
2023-09-25T05:40:42.964Z,22.25
2023-09-25T05:41:13.387Z,22.27
2023-09-25T05:41:43.812Z,22.25
2023-09-25T05:42:14.258Z,22.25
2023-09-25T05:42:44.700Z,22.26
2023-09-25T05:43:15.109Z,22.26
2023-09-25T05:43:45.528Z,22.25
2023-09-25T05:44:15.945Z,22.24
2023-09-25T05:44:46.367Z,22.23
2023-09-25T05:45:16.852Z,22.26
2023-09-25T05:45:47.288Z,22.26
2023-09-25T05:46:17.744Z,22.25
2023-09-25T05:46:48.239Z,22.26
2023-09-25T05:47:18.614Z,22.28
2023-09-25T05:47:49.115Z,22.27
2023-09-25T05:48:19.568Z,22.25
2023-09-25T05:48:50.180Z,22.24
2023-09-25T05:49:20.725Z,22.22
2023-09-25T05:49:51.148Z,22.24
2023-09-25T05:50:21.604Z,22.26
2023-09-25T05:50:52.024Z,22.31
2023-09-25T05:51:22.488Z,22.31
2023-09-25T05:51:52.960Z,22.30
2023-09-25T05:52:23.390Z,22.32
2023-09-25T05:52:53.805Z,22.33
2023-09-25T05:53:24.248Z,22.33
2023-09-25T05:53:54.654Z,22.32
2023-09-25T05:54:25.137Z,22.28
2023-09-25T05:54:55.652Z,22.28
2023-09-25T05:55:26.145Z,22.30
2023-09-25T05:55:56.587Z,22.29
2023-09-25T05:56:27.007Z,22.33
2023-09-25T05:56:57.439Z,22.32
2023-09-25T05:57:27.899Z,22.30
2023-09-25T05:57:58.397Z,22.32
2023-09-25T05:58:28.772Z,22.32
2023-09-25T05:58:59.192Z,22.32
2023-09-25T05:59:29.642Z,22.31
2023-09-25T06:00:00.194Z,22.34
2023-09-25T06:00:30.666Z,22.35
2023-09-25T06:01:01.120Z,22.33
2023-09-25T06:01:31.576Z,22.34
2023-09-25T06:02:01.976Z,22.32
2023-09-25T06:02:36.881Z,22.31
2023-09-25T06:03:07.776Z,22.29
2023-09-25T06:03:38.364Z,22.32
2023-09-25T06:04:08.874Z,22.32
2023-09-25T06:04:39.573Z,22.31
2023-09-25T06:05:10.072Z,22.31
2023-09-25T06:05:40.486Z,22.32
2023-09-25T06:06:11.059Z,22.31
2023-09-25T06:06:41.510Z,22.34
2023-09-25T06:07:11.916Z,22.34
2023-09-25T06:07:42.339Z,22.31
2023-09-25T06:08:12.752Z,22.31
2023-09-25T06:08:43.193Z,22.30
2023-09-25T06:09:13.649Z,22.27
2023-09-25T06:09:44.095Z,22.28
2023-09-25T06:10:14.563Z,22.28
2023-09-25T06:10:45.045Z,22.29
2023-09-25T06:11:15.477Z,22.27
2023-09-25T06:11:45.914Z,22.29
2023-09-25T06:12:16.375Z,22.29
2023-09-25T06:12:46.794Z,22.31
2023-09-25T06:13:17.191Z,22.32
2023-09-25T06:13:47.613Z,22.35
2023-09-25T06:14:18.060Z,22.34
2023-09-25T06:14:48.488Z,22.37
2023-09-25T06:15:18.936Z,22.34
2023-09-25T06:15:49.391Z,22.32
2023-09-25T06:16:19.765Z,22.32
2023-09-25T06:16:50.333Z,22.32
2023-09-25T06:17:20.744Z,22.34
2023-09-25T06:17:51.164Z,22.35
2023-09-25T06:18:21.606Z,22.34
2023-09-25T06:18:52.177Z,22.32
2023-09-25T06:19:22.695Z,22.31
2023-09-25T06:19:53.127Z,22.33
2023-09-25T06:20:23.529Z,22.34
2023-09-25T06:20:53.959Z,22.34
2023-09-25T06:21:24.414Z,22.34
2023-09-25T06:21:54.911Z,22.34
2023-09-25T06:22:25.358Z,22.32
2023-09-25T06:22:55.773Z,22.35
2023-09-25T06:23:26.200Z,22.35
2023-09-25T06:23:56.650Z,22.35
2023-09-25T06:24:27.092Z,22.36
2023-09-25T06:24:57.530Z,22.37
2023-09-25T06:25:27.944Z,22.35
2023-09-25T06:25:58.373Z,22.34
2023-09-25T06:26:28.808Z,22.33
2023-09-25T06:26:59.225Z,22.34
2023-09-25T06:27:29.709Z,22.34
2023-09-25T06:28:00.145Z,22.33
2023-09-25T06:28:30.565Z,22.37
2023-09-25T06:29:01.009Z,22.38
2023-09-25T06:29:31.457Z,22.38
2023-09-25T06:30:01.857Z,22.39
2023-09-25T06:30:32.375Z,22.38
2023-09-25T06:31:02.884Z,22.38
2023-09-25T06:31:40.244Z,22.34
2023-09-25T06:32:08.730Z,22.35
2023-09-25T06:32:39.134Z,22.32